KPUB

Pueblo Memorial Airport

Pueblo, Colorado, USA
METAR KPUB 191753Z VRB05KT 10SM CLR 33/04 A2989 RMK AO2 SLP042 T03280044 10328 20133 58006
Observed Flight Rules
Sep-19 @ 17:53 UTC (55 minutes ago) Visual Flight Rules
Wind Visibility Clouds
Variable at 5 knots 10 miles
  • Clear skies
Temperatures Readings
Current 33°C / 91°F
Dewpoint 4°C / 39°F
Humidity 16%
Altimeter 29.89" Hg
Pressure 1004.2 hPa
Elevation 1420
METAR KPUB 191753Z VRB05KT 10SM CLR 33/04 A2989 RMK AO2 SLP042 T03280044 10328 20133 58006
Observed Flight Rules
Sep-19 @ 17:53 UTC
(55 minutes ago)
VFR
Wind Visibility
Variable at 5 knots 10 miles
Clouds
  • Clear skies
Temperature Dewpoint
33°C / 91°F 4°C / 39°F
Humidity Altimeter Pressure
16% 29.89" Hg 1004.2 hPa